Time;durP1;ratioP1;P1;durP2;ratioP2;P2;SDS_P1;SDS_P2;PMS_P1;PMS_P2;Temp;Humidity;BMP_temperature;BMP_pressure;BME280_temperature;BME280_humidity;BME280_pressure;Samples;Min_cycle;Max_cycle;Signal;HPM_P1;HPM_P2
2022/08/17 00:00:46;;;;;;;27.33;22.63;;;19.40;99.90;;;;;;5039212;28;20032;-73
2022/08/17 00:03:18;;;;;;;26.65;23.95;;;19.50;99.90;;;;;;5051260;28;20045;-74
2022/08/17 00:05:45;;;;;;;28.90;23.92;;;19.50;99.90;;;;;;5052364;28;20036;-74
2022/08/17 00:08:13;;;;;;;25.13;22.40;;;19.50;99.90;;;;;;5068091;28;20040;-74
2022/08/17 00:10:40;;;;;;;27.25;23.02;;;19.50;99.90;;;;;;5056724;28;20037;-74
2022/08/17 00:13:13;;;;;;;18.90;17.10;;;19.50;99.90;;;;;;5057343;28;20501;-75
2022/08/17 00:15:38;;;;;;;20.98;18.92;;;19.30;99.90;;;;;;5054575;28;20423;-73
2022/08/17 00:18:04;;;;;;;23.35;20.95;;;19.20;99.90;;;;;;5049067;28;20036;-75
2022/08/17 00:20:30;;;;;;;23.42;21.05;;;19.10;99.90;;;;;;5032738;28;20041;-73
2022/08/17 00:23:10;;;;;;;22.10;19.85;;;19.10;99.90;;;;;;5053878;28;20552;-73
2022/08/17 00:25:36;;;;;;;23.45;21.00;;;19.10;99.90;;;;;;5058010;28;20051;-73
2022/08/17 00:28:02;;;;;;;28.83;23.63;;;19.10;99.90;;;;;;5053666;28;20417;-73
2022/08/17 00:30:28;;;;;;;26.98;24.10;;;19.20;99.90;;;;;;5027088;28;20053;-74
2022/08/17 00:32:54;;;;;;;24.75;22.00;;;19.20;99.90;;;;;;5049748;28;20032;-73
2022/08/17 00:35:24;;;;;;;28.38;23.85;;;19.30;99.90;;;;;;5062512;28;20044;-72
2022/08/17 00:37:51;;;;;;;26.35;23.15;;;19.30;99.90;;;;;;5033033;28;20041;-74
2022/08/17 00:40:17;;;;;;;28.40;25.27;;;19.40;99.90;;;;;;5046256;28;20064;-74
2022/08/17 00:42:44;;;;;;;25.35;22.60;;;19.40;99.90;;;;;;5048773;28;20045;-74
2022/08/17 00:45:12;;;;;;;26.00;23.23;;;19.40;99.90;;;;;;5059771;28;20044;-74
2022/08/17 00:47:39;;;;;;;27.88;24.88;;;19.50;99.90;;;;;;5048084;28;20049;-74
2022/08/17 00:50:09;;;;;;;29.58;25.70;;;19.40;99.90;;;;;;5070281;28;20037;-73
2022/08/17 00:52:42;;;;;;;26.42;23.83;;;19.50;99.90;;;;;;5053144;28;20053;-74
2022/08/17 00:55:08;;;;;;;24.30;21.88;;;19.50;99.90;;;;;;5056462;28;20565;-75
2022/08/17 00:57:43;;;;;;;25.05;22.38;;;19.60;99.90;;;;;;5045984;28;20052;-73
2022/08/17 01:00:25;;;;;;;23.83;21.38;;;19.60;99.90;;;;;;5046820;28;20043;-74
2022/08/17 01:02:56;;;;;;;21.58;19.48;;;19.50;99.90;;;;;;5043423;28;20111;-74
2022/08/17 01:05:25;;;;;;;22.13;19.77;;;19.50;99.90;;;;;;5062320;28;20044;-73
2022/08/17 01:07:52;;;;;;;25.35;20.52;;;19.30;99.90;;;;;;5055887;28;20041;-75
2022/08/17 01:10:21;;;;;;;22.95;20.58;;;19.20;99.90;;;;;;5050652;28;20032;-75
2022/08/17 01:12:48;;;;;;;25.48;21.05;;;19.20;99.90;;;;;;5052688;28;20048;-73
2022/08/17 01:15:15;;;;;;;41.67;28.80;;;18.80;99.90;;;;;;5042197;28;20056;-73
2022/08/17 01:17:42;;;;;;;88.40;30.48;;;18.30;99.90;;;;;;5035505;28;20118;-74
2022/08/17 01:20:08;;;;;;;32.35;28.13;;;18.10;99.90;;;;;;5051901;28;20393;-73
2022/08/17 01:22:34;;;;;;;25.42;22.90;;;18.00;99.90;;;;;;5059510;28;20132;-74
2022/08/17 01:25:03;;;;;;;24.90;22.38;;;17.90;99.90;;;;;;5053555;28;20119;-72
2022/08/17 01:27:30;;;;;;;30.40;20.52;;;17.90;99.90;;;;;;5057230;28;20085;-72
2022/08/17 01:30:05;;;;;;;21.60;18.20;;;17.90;99.90;;;;;;5058629;28;20049;-74
2022/08/17 01:32:32;;;;;;;17.83;15.88;;;17.90;99.90;;;;;;5051475;28;20151;-74
2022/08/17 01:34:59;;;;;;;22.00;18.42;;;18.00;99.90;;;;;;5036542;28;20037;-76
2022/08/17 01:37:38;;;;;;;32.97;19.92;;;18.00;99.90;;;;;;5055167;28;20056;-75
2022/08/17 01:40:04;;;;;;;37.22;20.83;;;18.10;99.90;;;;;;5072350;28;20040;-74
2022/08/17 01:42:41;;;;;;;45.17;21.67;;;18.00;99.90;;;;;;5062083;28;20040;-74
2022/08/17 01:45:13;;;;;;;37.17;18.88;;;18.00;99.90;;;;;;5069250;28;20038;-74
2022/08/17 01:47:40;;;;;;;48.40;17.15;;;17.90;99.90;;;;;;5069636;28;20472;-73
2022/08/17 01:50:14;;;;;;;22.02;15.15;;;17.80;99.90;;;;;;5066226;28;20499;-74
2022/08/17 01:52:45;;;;;;;18.85;14.57;;;17.80;99.90;;;;;;5051530;28;20025;-76
2022/08/17 01:55:14;;;;;;;37.08;15.65;;;17.70;99.90;;;;;;5055311;28;20098;-76
2022/08/17 01:57:40;;;;;;;57.65;16.15;;;17.80;99.90;;;;;;5064748;28;20075;-75
2022/08/17 02:00:09;;;;;;;66.07;17.30;;;17.70;99.90;;;;;;5066478;28;20052;-75
2022/08/17 02:02:35;;;;;;;39.90;15.43;;;17.70;99.90;;;;;;5069902;28;20040;-73
2022/08/17 02:05:00;;;;;;;63.75;15.88;;;17.80;99.90;;;;;;5031466;28;20524;-72
2022/08/17 02:07:27;;;;;;;52.35;15.27;;;17.70;99.90;;;;;;5057762;28;20040;-74
2022/08/17 02:09:52;;;;;;;42.58;15.55;;;17.80;99.90;;;;;;5068017;28;20040;-72
2022/08/17 02:12:18;;;;;;;29.58;20.58;;;17.80;99.90;;;;;;5036535;28;20063;-73
2022/08/17 02:14:44;;;;;;;109.90;23.40;;;17.90;99.90;;;;;;5070261;28;20080;-73
2022/08/17 02:17:10;;;;;;;129.55;23.33;;;18.10;99.90;;;;;;5053836;28;20052;-73
2022/08/17 02:19:35;;;;;;;115.97;23.48;;;18.30;99.90;;;;;;5044284;28;20041;-74
2022/08/17 02:22:01;;;;;;;46.92;18.45;;;18.40;99.90;;;;;;5050281;28;20057;-74
2022/08/17 02:24:33;;;;;;;84.68;20.83;;;18.60;99.90;;;;;;5057546;28;20115;-76
2022/08/17 02:26:59;;;;;;;109.43;20.85;;;18.60;99.90;;;;;;5053854;28;20108;-75
2022/08/17 02:29:25;;;;;;;100.90;22.83;;;18.60;99.90;;;;;;5044115;28;20037;-75
2022/08/17 02:31:51;;;;;;;95.00;21.55;;;18.60;99.90;;;;;;5051726;28;20080;-74
2022/08/17 02:34:17;;;;;;;116.78;24.08;;;18.60;99.90;;;;;;5052981;28;20522;-75
2022/08/17 02:36:43;;;;;;;113.10;23.38;;;18.60;99.90;;;;;;5059295;28;20045;-74
2022/08/17 02:39:11;;;;;;;184.68;26.88;;;18.80;99.90;;;;;;5068224;28;20362;-75
2022/08/17 02:41:38;;;;;;;236.85;28.00;;;18.70;99.90;;;;;;5040347;28;20380;-75
2022/08/17 02:44:05;;;;;;;246.18;29.00;;;18.80;99.90;;;;;;5070841;28;20097;-76
2022/08/17 02:46:31;;;;;;;226.27;27.95;;;18.80;99.90;;;;;;5060783;28;20143;-74
2022/08/17 02:48:57;;;;;;;149.15;29.15;;;18.80;99.90;;;;;;5054134;28;20131;-72
2022/08/17 02:51:23;;;;;;;128.82;27.70;;;18.80;99.90;;;;;;5055831;28;20047;-75
2022/08/17 02:53:49;;;;;;;108.78;25.35;;;18.80;99.90;;;;;;5035326;28;20044;-75
2022/08/17 02:56:15;;;;;;;132.85;26.88;;;18.80;99.90;;;;;;5042886;28;20048;-75
2022/08/17 02:58:41;;;;;;;163.23;27.63;;;18.90;99.90;;;;;;5033801;28;20659;-75
2022/08/17 03:01:08;;;;;;;81.18;23.85;;;18.80;99.90;;;;;;5042554;28;20045;-75
2022/08/17 03:03:36;;;;;;;74.35;23.70;;;18.80;99.90;;;;;;5050880;28;20044;-74
2022/08/17 03:06:02;;;;;;;59.60;24.33;;;18.90;99.90;;;;;;5048336;28;20035;-75
2022/08/17 03:08:28;;;;;;;56.80;23.80;;;18.90;99.90;;;;;;5049471;28;20501;-75
2022/08/17 03:10:54;;;;;;;38.63;24.52;;;18.80;99.90;;;;;;5039204;28;20123;-72
2022/08/17 03:13:20;;;;;;;33.25;25.45;;;18.90;99.90;;;;;;5051550;28;20072;-73
2022/08/17 03:15:47;;;;;;;27.23;23.90;;;18.90;99.90;;;;;;5060488;28;20071;-74
2022/08/17 03:18:16;;;;;;;27.80;24.13;;;18.90;99.90;;;;;;5070040;28;20040;-73
2022/08/17 03:20:42;;;;;;;25.40;22.88;;;18.90;99.90;;;;;;5049754;28;20381;-74
2022/08/17 03:23:08;;;;;;;67.45;23.40;;;18.90;99.90;;;;;;5060902;28;20056;-74
2022/08/17 03:25:41;;;;;;;67.13;22.27;;;18.80;99.90;;;;;;5055025;28;20040;-73
2022/08/17 03:28:07;;;;;;;45.20;21.48;;;18.70;99.90;;;;;;5069408;28;20052;-74
2022/08/17 03:30:34;;;;;;;62.45;22.83;;;18.70;99.90;;;;;;5068514;28;20093;-74
2022/08/17 03:33:01;;;;;;;45.33;21.27;;;18.70;99.90;;;;;;5052259;28;20051;-75
2022/08/17 03:35:30;;;;;;;26.83;20.35;;;18.60;99.90;;;;;;5058366;28;20041;-73
2022/08/17 03:37:56;;;;;;;38.28;19.10;;;18.40;99.90;;;;;;5045874;28;20033;-75
2022/08/17 03:40:23;;;;;;;52.38;17.55;;;18.20;99.90;;;;;;5078459;28;20033;-73
2022/08/17 03:42:52;;;;;;;64.57;17.52;;;18.20;99.90;;;;;;5064467;28;20082;-73
2022/08/17 03:56:40;;;;;;;50.75;17.80;;;18.20;99.90;;;;;;5049672;28;20139;-72
2022/08/17 03:56:44;;;;;;;89.97;17.80;;;18.00;99.90;;;;;;5048678;28;20106;-74
2022/08/17 03:59:15;;;;;;;64.82;17.88;;;18.00;99.90;;;;;;5049371;28;20092;-74
2022/08/17 04:01:43;;;;;;;42.13;15.65;;;17.90;99.90;;;;;;5049337;28;20049;-74
2022/08/17 04:04:09;;;;;;;77.70;17.23;;;17.90;99.90;;;;;;5033315;28;20246;-74
2022/08/17 04:06:35;;;;;;;66.53;16.40;;;17.80;99.90;;;;;;5059066;28;20041;-75
2022/08/17 04:09:01;;;;;;;82.80;17.50;;;17.80;99.90;;;;;;5052656;28;20037;-76
2022/08/17 04:11:27;;;;;;;81.55;16.80;;;17.70;99.90;;;;;;5048078;28;20400;-76
2022/08/17 04:13:53;;;;;;;109.55;20.52;;;17.80;99.90;;;;;;5032381;28;20059;-75
2022/08/17 04:16:19;;;;;;;181.98;21.65;;;17.80;99.90;;;;;;5048938;28;20052;-75
2022/08/17 04:18:44;;;;;;;94.72;20.70;;;17.80;99.90;;;;;;5056095;28;20048;-74
2022/08/17 04:21:10;;;;;;;90.72;21.90;;;17.90;99.90;;;;;;5028120;28;20052;-75
2022/08/17 04:23:36;;;;;;;86.50;22.55;;;17.90;99.90;;;;;;5053372;28;20496;-75
2022/08/17 04:26:02;;;;;;;78.03;20.83;;;18.00;99.90;;;;;;5059193;28;20041;-75
2022/08/17 04:28:29;;;;;;;101.00;23.52;;;18.10;99.90;;;;;;5061520;28;20040;-73
2022/08/17 04:30:55;;;;;;;92.07;21.38;;;18.10;99.90;;;;;;5052124;28;20052;-76
2022/08/17 04:33:24;;;;;;;95.45;22.67;;;18.20;99.90;;;;;;5059675;28;20424;-73
2022/08/17 04:35:54;;;;;;;123.75;23.00;;;18.20;99.90;;;;;;5053945;28;20036;-75
2022/08/17 04:38:23;;;;;;;111.53;24.02;;;18.20;99.90;;;;;;5049952;28;21835;-75
2022/08/17 04:43:35;;;;;;;141.35;21.35;;;18.30;99.90;;;;;;5054580;28;20127;-76
2022/08/17 04:46:04;;;;;;;131.95;23.50;;;18.30;99.90;;;;;;5052639;28;20029;-74
2022/08/17 04:48:51;;;;;;;91.07;19.20;;;18.30;99.90;;;;;;5038205;28;20391;-73
2022/08/17 04:51:16;;;;;;;105.45;22.38;;;18.30;99.90;;;;;;5062606;28;20067;-74
2022/08/17 04:53:45;;;;;;;104.13;20.83;;;18.30;99.90;;;;;;5052799;28;20641;-73
2022/08/17 04:56:14;;;;;;;92.03;19.75;;;18.20;99.90;;;;;;5062361;28;20068;-74
2022/08/17 04:58:44;;;;;;;62.60;19.85;;;18.20;99.90;;;;;;5056354;28;20068;-73
2022/08/17 05:01:10;;;;;;;99.03;19.27;;;18.30;99.90;;;;;;5071326;28;20060;-73
2022/08/17 05:03:36;;;;;;;135.57;19.67;;;18.30;99.90;;;;;;5072108;28;20507;-74
2022/08/17 05:06:02;;;;;;;97.80;19.60;;;18.30;99.90;;;;;;5072252;28;20055;-74
2022/08/17 05:08:28;;;;;;;89.30;19.42;;;18.30;99.90;;;;;;5037546;28;20058;-74
2022/08/17 05:10:54;;;;;;;90.55;18.65;;;18.40;99.90;;;;;;5066030;28;20115;-74
2022/08/17 05:13:24;;;;;;;86.85;21.30;;;18.40;99.90;;;;;;5056064;28;20059;-74
2022/08/17 05:15:57;;;;;;;64.00;19.90;;;18.60;99.90;;;;;;5067823;28;20037;-75
2022/08/17 05:18:23;;;;;;;39.13;21.40;;;18.70;99.90;;;;;;5056846;28;20045;-75
2022/08/17 05:20:48;;;;;;;25.50;22.17;;;18.70;99.90;;;;;;5069983;28;20036;-74
2022/08/17 05:23:17;;;;;;;29.60;22.33;;;18.90;99.90;;;;;;5052804;28;20056;-74
2022/08/17 05:25:46;;;;;;;27.23;23.60;;;18.80;99.90;;;;;;5060861;28;20758;-75
2022/08/17 05:28:12;;;;;;;28.48;23.90;;;19.00;99.90;;;;;;5069980;28;20051;-74
2022/08/17 05:30:40;;;;;;;25.92;23.33;;;19.00;99.90;;;;;;5065967;28;20037;-74
2022/08/17 05:33:19;;;;;;;23.92;21.52;;;19.10;99.90;;;;;;5019697;28;20037;-74
2022/08/17 05:35:48;;;;;;;28.67;21.25;;;19.10;99.90;;;;;;5053589;28;20124;-74
2022/08/17 05:38:16;;;;;;;26.92;23.83;;;19.10;99.90;;;;;;5072258;28;20166;-74
2022/08/17 05:40:43;;;;;;;25.48;22.80;;;19.10;99.90;;;;;;5071860;28;20060;-74
2022/08/17 05:43:29;;;;;;;27.33;24.45;;;19.10;99.90;;;;;;5055707;28;20119;-75
2022/08/17 05:46:14;;;;;;;26.95;24.08;;;19.30;99.90;;;;;;5071971;28;20093;-75
2022/08/17 05:48:50;;;;;;;25.70;23.00;;;19.20;99.90;;;;;;5052011;28;20433;-75
2022/08/17 05:51:25;;;;;;;30.65;25.95;;;19.20;99.90;;;;;;5058689;28;20041;-74
2022/08/17 05:54:16;;;;;;;30.25;27.17;;;19.40;99.90;;;;;;5072527;28;20110;-76
2022/08/17 05:57:17;;;;;;;31.58;26.90;;;19.30;99.90;;;;;;5069004;28;20041;-75
2022/08/17 05:59:53;;;;;;;30.67;27.30;;;19.50;99.90;;;;;;5051912;28;20041;-75
2022/08/17 06:02:21;;;;;;;30.77;27.58;;;19.70;99.90;;;;;;5067019;28;20120;-76
2022/08/17 06:04:59;;;;;;;29.20;26.15;;;19.70;99.90;;;;;;5071747;28;20037;-77
2022/08/17 06:07:46;;;;;;;27.52;24.63;;;19.90;99.90;;;;;;5052669;28;20094;-76
2022/08/17 06:10:16;;;;;;;26.60;23.77;;;19.80;99.90;;;;;;5071993;28;20385;-77
2022/08/17 06:12:58;;;;;;;29.88;26.70;;;19.90;99.90;;;;;;5072282;28;20119;-76
2022/08/17 06:15:34;;;;;;;29.98;26.67;;;20.00;99.90;;;;;;5054060;28;20397;-77
2022/08/17 06:18:05;;;;;;;32.13;28.02;;;20.00;99.90;;;;;;5057705;28;20048;-74
2022/08/17 06:21:00;;;;;;;31.75;28.00;;;20.00;99.90;;;;;;5066838;28;20127;-75
2022/08/17 06:23:37;;;;;;;30.08;26.35;;;20.00;99.90;;;;;;5055155;28;20396;-75
2022/08/17 06:26:11;;;;;;;39.10;30.67;;;20.10;99.90;;;;;;5071605;28;20137;-74
2022/08/17 06:28:48;;;;;;;38.10;31.95;;;20.10;99.90;;;;;;5069815;28;20032;-74
2022/08/17 06:31:28;;;;;;;35.83;31.27;;;20.30;99.90;;;;;;5070916;28;20063;-76
2022/08/17 06:33:59;;;;;;;42.38;32.92;;;20.40;99.90;;;;;;5055249;28;20044;-75
2022/08/17 06:36:40;;;;;;;42.75;34.42;;;20.40;99.90;;;;;;5054931;28;20040;-74
2022/08/17 06:39:41;;;;;;;51.78;37.65;;;20.40;99.90;;;;;;5053630;28;20362;-75
2022/08/17 06:42:10;;;;;;;50.13;39.45;;;20.60;99.90;;;;;;5054166;28;20443;-75
2022/08/17 06:45:02;;;;;;;58.08;40.58;;;20.60;99.90;;;;;;5071064;28;20076;-76
2022/08/17 06:47:30;;;;;;;58.67;40.50;;;20.50;99.90;;;;;;5039784;28;20044;-75
2022/08/17 06:50:13;;;;;;;62.00;42.58;;;20.60;99.90;;;;;;5052011;28;20069;-76
2022/08/17 06:52:48;;;;;;;65.82;41.65;;;20.70;99.90;;;;;;5069450;28;20040;-75
2022/08/17 06:55:38;;;;;;;58.60;42.47;;;20.70;99.90;;;;;;5054513;28;20041;-74
2022/08/17 06:58:06;;;;;;;55.00;40.33;;;20.60;99.90;;;;;;5069137;28;20128;-73
2022/08/17 07:00:40;;;;;;;57.22;40.25;;;20.90;99.90;;;;;;5070302;28;20036;-74
2022/08/17 07:03:14;;;;;;;60.03;41.92;;;20.80;99.90;;;;;;5048131;28;20040;-73
2022/08/17 07:05:52;;;;;;;58.97;40.42;;;20.80;99.90;;;;;;5060067;28;20504;-74
2022/08/17 07:08:32;;;;;;;60.72;40.13;;;20.90;99.90;;;;;;5058794;28;20131;-74
2022/08/17 07:11:07;;;;;;;56.05;40.75;;;20.90;99.90;;;;;;5070845;28;20044;-74
2022/08/17 07:13:43;;;;;;;57.80;41.40;;;20.80;99.90;;;;;;5054248;28;20109;-73
2022/08/17 07:16:20;;;;;;;59.28;41.33;;;20.80;99.90;;;;;;5070019;28;20493;-75
2022/08/17 07:18:48;;;;;;;60.88;43.20;;;21.00;99.90;;;;;;5065573;28;20048;-75
2022/08/17 07:21:45;;;;;;;59.25;44.67;;;21.10;99.90;;;;;;5070589;28;20037;-77
2022/08/17 07:24:29;;;;;;;58.53;42.75;;;21.10;99.90;;;;;;5059714;28;20052;-77
2022/08/17 07:27:07;;;;;;;63.55;45.83;;;21.10;99.90;;;;;;5052478;28;20062;-76
2022/08/17 07:29:38;;;;;;;59.67;42.20;;;21.00;99.90;;;;;;5070296;28;20044;-76
2022/08/17 07:32:04;;;;;;;57.58;41.83;;;21.20;99.90;;;;;;5053235;28;20044;-77
2022/08/17 07:34:50;;;;;;;64.93;44.85;;;21.20;99.90;;;;;;5037372;28;20107;-77
2022/08/17 07:37:18;;;;;;;61.30;45.35;;;21.20;99.90;;;;;;5053422;28;20584;-76
2022/08/17 07:39:43;;;;;;;64.38;45.20;;;21.40;99.90;;;;;;5052946;28;20067;-75
2022/08/17 07:42:09;;;;;;;64.25;45.95;;;21.50;99.90;;;;;;5053810;28;20045;-75
2022/08/17 07:44:52;;;;;;;67.57;47.70;;;21.50;99.90;;;;;;5070039;28;20106;-76
2022/08/17 07:50:28;;;;;;;63.67;45.67;;;21.60;99.90;;;;;;5058793;28;20045;-76
2022/08/17 07:52:53;;;;;;;72.15;48.58;;;21.60;99.90;;;;;;5050518;28;20047;-75
2022/08/17 07:55:28;;;;;;;72.22;46.42;;;21.60;99.90;;;;;;5047266;28;20044;-75
2022/08/17 07:57:56;;;;;;;69.30;45.65;;;21.70;99.90;;;;;;5068988;28;20041;-75
2022/08/17 08:00:23;;;;;;;69.13;47.40;;;21.90;99.90;;;;;;5051156;28;20097;-76
2022/08/17 08:03:15;;;;;;;72.15;48.50;;;22.00;99.90;;;;;;5051067;28;20533;-75
2022/08/17 08:06:01;;;;;;;70.00;47.17;;;22.00;99.90;;;;;;5047689;28;20053;-75
2022/08/17 08:08:37;;;;;;;68.32;42.20;;;21.90;99.90;;;;;;5050527;28;20041;-74
2022/08/17 08:11:09;;;;;;;73.47;41.45;;;22.00;99.90;;;;;;5067342;28;20032;-74
2022/08/17 08:13:43;;;;;;;68.32;38.65;;;22.00;99.90;;;;;;5052640;28;20044;-73
2022/08/17 08:16:21;;;;;;;64.68;38.60;;;22.00;99.90;;;;;;5062382;28;20093;-75
2022/08/17 08:18:50;;;;;;;64.90;38.92;;;22.00;99.90;;;;;;5066706;28;20473;-76
2022/08/17 08:21:34;;;;;;;61.58;38.45;;;21.90;99.90;;;;;;5065572;28;20036;-76
2022/08/17 08:24:38;;;;;;;58.70;38.20;;;21.80;99.90;;;;;;5068376;28;20048;-75
2022/08/17 08:27:48;;;;;;;58.72;39.15;;;22.00;99.90;;;;;;5060485;28;20489;-74
2022/08/17 08:30:20;;;;;;;56.25;39.53;;;21.90;99.90;;;;;;5060294;28;20374;-76
2022/08/17 08:33:26;;;;;;;66.20;41.33;;;22.10;99.90;;;;;;5059222;28;20099;-76
2022/08/17 08:36:01;;;;;;;64.18;43.90;;;22.30;99.90;;;;;;5063674;28;20032;-72
2022/08/17 08:38:46;;;;;;;61.17;42.55;;;22.20;99.90;;;;;;5068389;28;20041;-76
2022/08/17 08:41:18;;;;;;;61.30;40.63;;;22.30;99.90;;;;;;5067271;28;20489;-76
2022/08/17 08:44:19;;;;;;;63.85;43.13;;;22.50;99.90;;;;;;5065149;28;20033;-76
2022/08/17 08:47:11;;;;;;;66.07;46.40;;;22.50;99.90;;;;;;5044455;28;20037;-76
2022/08/17 08:49:45;;;;;;;;;;;22.30;99.90;;;;;;5054024;28;20036;-76
2022/08/17 08:52:34;;;;;;;54.83;38.05;;;22.20;99.90;;;;;;5059929;28;19960;-77
2022/08/17 08:55:39;;;;;;;54.08;38.97;;;22.20;99.90;;;;;;5055872;28;20750;-78
2022/08/17 08:58:51;;;;;;;50.25;36.45;;;22.20;99.90;;;;;;5068140;28;20380;-76
2022/08/17 09:01:38;;;;;;;49.20;35.05;;;21.90;99.90;;;;;;5052998;28;20044;-76
2022/08/17 09:04:18;;;;;;;52.20;36.03;;;21.80;99.90;;;;;;5051632;28;20098;-78
2022/08/17 09:07:11;;;;;;;48.65;34.20;;;21.70;99.90;;;;;;5070693;28;20493;-77
2022/08/17 09:09:48;;;;;;;49.30;36.38;;;21.70;99.90;;;;;;5055545;28;20041;-76
2022/08/17 09:12:28;;;;;;;50.03;36.63;;;21.90;99.90;;;;;;5052599;28;20879;-77
2022/08/17 09:15:09;;;;;;;53.00;37.45;;;22.00;99.90;;;;;;5044783;28;20049;-76
2022/08/17 09:17:53;;;;;;;50.83;37.45;;;21.80;99.90;;;;;;5042411;28;20040;-76
2022/08/17 09:20:46;;;;;;;48.33;36.30;;;21.80;99.90;;;;;;5054816;28;20048;-78
2022/08/17 09:23:31;;;;;;;47.63;36.72;;;21.80;99.90;;;;;;5071404;28;20064;-76
2022/08/17 09:26:10;;;;;;;49.00;35.33;;;21.80;99.90;;;;;;5055110;28;20126;-77
2022/08/17 09:28:39;;;;;;;44.38;34.58;;;21.80;99.90;;;;;;5047853;28;20044;-75
2022/08/17 09:31:12;;;;;;;49.67;35.78;;;22.00;99.90;;;;;;5071526;28;20123;-76
2022/08/17 09:33:45;;;;;;;52.60;39.10;;;22.00;99.90;;;;;;5055101;28;20090;-77
2022/08/17 09:36:32;;;;;;;48.25;36.13;;;22.00;99.90;;;;;;5054242;28;20122;-76
2022/08/17 09:39:07;;;;;;;50.63;37.35;;;22.10;99.90;;;;;;5054015;28;20039;-77
2022/08/17 09:41:54;;;;;;;49.20;36.63;;;22.20;99.90;;;;;;5054466;28;20132;-76
2022/08/17 09:44:39;;;;;;;46.47;35.72;;;22.20;99.90;;;;;;5054848;28;20568;-76
2022/08/17 09:47:30;;;;;;;46.33;37.17;;;22.20;99.90;;;;;;5054056;28;20101;-76
2022/08/17 09:50:06;;;;;;;43.17;35.10;;;22.10;99.90;;;;;;5054594;28;20048;-77
2022/08/17 09:52:32;;;;;;;50.05;37.38;;;22.00;99.90;;;;;;5070922;28;20711;-76
2022/08/17 09:55:00;;;;;;;46.30;35.22;;;22.40;99.90;;;;;;5070720;28;20127;-77
2022/08/17 09:57:50;;;;;;;46.92;36.65;;;22.40;99.90;;;;;;5047148;28;20129;-76
2022/08/17 10:00:25;;;;;;;39.45;33.03;;;22.50;99.90;;;;;;5053320;28;20127;-77
2022/08/17 10:02:54;;;;;;;37.50;32.40;;;22.50;99.90;;;;;;5069464;28;20135;-76
2022/08/17 10:05:26;;;;;;;42.70;35.75;;;22.50;99.90;;;;;;5070849;28;20447;-76
2022/08/17 10:08:11;;;;;;;41.85;35.55;;;22.30;99.90;;;;;;5054129;28;20058;-77
2022/08/17 10:10:52;;;;;;;47.22;36.25;;;22.40;99.90;;;;;;5070884;28;20116;-76
2022/08/17 10:13:52;;;;;;;42.08;35.92;;;22.40;99.90;;;;;;5053643;28;20582;-77
2022/08/17 10:16:37;;;;;;;43.20;36.13;;;22.20;99.90;;;;;;5053735;28;20047;-77
2022/08/17 10:19:14;;;;;;;45.40;36.53;;;22.20;99.90;;;;;;5070000;28;20044;-77
2022/08/17 10:27:56;;;;;;;39.63;35.42;;;22.10;99.90;;;;;;5067332;28;20087;-77
2022/08/17 10:30:26;;;;;;;36.72;32.75;;;22.20;99.90;;;;;;5060755;28;20032;-76
2022/08/17 10:32:56;;;;;;;36.83;32.67;;;22.00;99.90;;;;;;5067106;28;20033;-76
2022/08/17 10:35:25;;;;;;;35.22;30.67;;;22.00;99.90;;;;;;5058744;28;20075;-76
2022/08/17 10:38:07;;;;;;;36.28;31.08;;;22.20;99.90;;;;;;5050630;28;20041;-77
2022/08/17 10:40:42;;;;;;;36.65;31.05;;;22.30;99.90;;;;;;5042984;28;20055;-76
2022/08/17 10:43:21;;;;;;;34.45;30.90;;;22.20;99.90;;;;;;5068325;28;20131;-77
2022/08/17 10:45:50;;;;;;;36.95;30.95;;;22.20;99.90;;;;;;5069895;28;20102;-77
2022/08/17 10:48:26;;;;;;;36.35;32.40;;;22.30;99.90;;;;;;5069989;28;20042;-77
2022/08/17 10:50:56;;;;;;;36.13;31.88;;;22.10;99.90;;;;;;5069674;28;20040;-76
2022/08/17 10:53:31;;;;;;;36.50;31.42;;;22.20;99.90;;;;;;5066490;28;20048;-77
2022/08/17 10:56:12;;;;;;;34.88;29.88;;;22.30;99.90;;;;;;5066488;28;20469;-77
2022/08/17 10:58:45;;;;;;;30.13;27.02;;;22.20;99.90;;;;;;5049512;28;20045;-79
2022/08/17 11:01:11;;;;;;;34.65;27.85;;;22.40;99.90;;;;;;5059045;28;20095;-76
2022/08/17 11:03:53;;;;;;;29.63;26.63;;;22.30;99.90;;;;;;5052060;28;20102;-77
2022/08/17 11:06:22;;;;;;;39.10;32.47;;;22.40;99.90;;;;;;5048759;28;20048;-75
2022/08/17 11:09:01;;;;;;;37.22;32.15;;;22.40;99.90;;;;;;5032396;28;20488;-76
2022/08/17 11:11:46;;;;;;;35.65;31.85;;;22.50;99.90;;;;;;5049545;28;20614;-76
2022/08/17 11:14:22;;;;;;;37.03;30.05;;;22.60;99.90;;;;;;5058303;28;20045;-77
2022/08/17 11:17:00;;;;;;;31.70;28.10;;;22.50;99.90;;;;;;5038693;28;20131;-78
2022/08/17 11:19:56;;;;;;;31.23;27.85;;;22.50;99.90;;;;;;5053486;28;20072;-80
2022/08/17 11:22:28;;;;;;;29.77;25.80;;;22.50;99.90;;;;;;5069381;28;20060;-78
2022/08/17 11:24:55;;;;;;;28.40;25.63;;;22.60;99.90;;;;;;5045342;28;20091;-78
2022/08/17 11:27:34;;;;;;;25.85;23.10;;;22.80;99.90;;;;;;5032990;28;20048;-77
2022/08/17 11:30:03;;;;;;;26.55;23.60;;;22.80;99.90;;;;;;5016566;28;20033;-75
2022/08/17 11:32:40;;;;;;;23.92;21.42;;;22.90;99.90;;;;;;5032339;28;20692;-76
2022/08/17 11:35:18;;;;;;;24.77;22.23;;;23.30;99.90;;;;;;5044718;28;20118;-75
2022/08/17 11:38:03;;;;;;;22.02;19.67;;;23.60;99.90;;;;;;5032936;28;20053;-75
2022/08/17 11:40:32;;;;;;;19.80;17.70;;;23.90;99.90;;;;;;5032517;28;20087;-75
2022/08/17 11:43:44;;;;;;;21.08;16.70;;;24.20;99.90;;;;;;5048690;28;20049;-75
2022/08/17 11:46:16;;;;;;;18.60;15.73;;;24.10;99.90;;;;;;5057903;28;20401;-75
2022/08/17 11:52:03;;;;;;;21.02;18.15;;;24.30;99.90;;;;;;5069064;28;20393;-75
2022/08/17 11:54:47;;;;;;;17.33;14.70;;;24.40;99.90;;;;;;5068339;28;20044;-77
2022/08/17 11:57:25;;;;;;;14.70;13.18;;;24.30;99.90;;;;;;5048628;28;20037;-78
2022/08/17 11:59:55;;;;;;;15.45;13.68;;;24.40;99.90;;;;;;5068889;28;20391;-76
2022/08/17 12:02:29;;;;;;;17.08;15.48;;;24.30;99.90;;;;;;5051899;28;20079;-79
2022/08/17 12:05:13;;;;;;;17.05;15.30;;;24.00;99.90;;;;;;5051438;28;20036;-77
2022/08/17 12:07:51;;;;;;;17.98;16.13;;;24.00;99.90;;;;;;5050630;28;20044;-77
2022/08/17 12:10:30;;;;;;;17.00;15.20;;;24.10;99.90;;;;;;5048509;28;20545;-75
2022/08/17 12:12:58;;;;;;;16.13;14.10;;;24.10;99.90;;;;;;5048466;28;20044;-75
2022/08/17 12:15:30;;;;;;;15.30;11.98;;;24.00;99.90;;;;;;5054365;28;20040;-77
2022/08/17 12:17:56;;;;;;;13.73;12.35;;;24.00;99.90;;;;;;5047481;28;20537;-76
2022/08/17 12:20:36;;;;;;;14.30;12.95;;;24.10;99.90;;;;;;5068468;28;20043;-75
2022/08/17 12:23:16;;;;;;;17.02;15.32;;;24.10;99.90;;;;;;5084943;28;20067;-75
2022/08/17 12:25:57;;;;;;;18.15;16.40;;;23.90;99.90;;;;;;5067975;28;20037;-76
2022/08/17 12:28:29;;;;;;;18.67;16.35;;;23.90;99.90;;;;;;5050751;28;20056;-76
2022/08/17 12:31:00;;;;;;;21.40;17.38;;;23.90;99.90;;;;;;5051392;28;20118;-76
2022/08/17 12:33:27;;;;;;;19.80;17.20;;;23.90;99.90;;;;;;5051641;28;20041;-75
2022/08/17 12:36:14;;;;;;;16.88;15.10;;;23.70;99.90;;;;;;5051472;28;20044;-76
2022/08/17 12:38:49;;;;;;;19.45;16.23;;;23.90;99.90;;;;;;5044251;28;20094;-75
2022/08/17 12:41:37;;;;;;;17.20;15.40;;;23.90;99.90;;;;;;5053067;28;20036;-76
2022/08/17 12:44:03;;;;;;;16.75;15.15;;;24.00;99.90;;;;;;5069849;28;20045;-76
2022/08/17 12:46:32;;;;;;;19.55;16.20;;;24.00;99.90;;;;;;5064713;28;20399;-76
2022/08/17 12:49:12;;;;;;;18.85;16.88;;;23.90;99.90;;;;;;5055475;28;20036;-78
2022/08/17 12:51:45;;;;;;;16.85;14.80;;;23.90;99.90;;;;;;5035167;28;20040;-76
2022/08/17 12:54:34;;;;;;;16.95;15.35;;;24.20;99.90;;;;;;5052177;28;20110;-76
2022/08/17 12:57:05;;;;;;;17.50;15.85;;;24.00;99.90;;;;;;5065837;28;20137;-78
2022/08/17 12:59:32;;;;;;;18.70;16.83;;;24.10;99.90;;;;;;5071985;28;20043;-76
2022/08/17 13:01:58;;;;;;;15.80;14.18;;;23.60;99.90;;;;;;5052613;28;20040;-74
2022/08/17 13:04:24;;;;;;;16.83;15.23;;;24.00;99.90;;;;;;5054449;28;20037;-74
2022/08/17 13:06:50;;;;;;;18.30;16.60;;;23.70;99.90;;;;;;5054891;28;20038;-76
2022/08/17 13:09:25;;;;;;;19.70;16.02;;;23.50;99.90;;;;;;5054832;28;20036;-78
2022/08/17 13:11:55;;;;;;;18.17;15.55;;;23.40;99.90;;;;;;5069918;28;20044;-78
2022/08/17 13:14:21;;;;;;;16.38;14.70;;;23.40;99.90;;;;;;5072030;28;20043;-77
2022/08/17 13:16:59;;;;;;;15.85;14.15;;;23.20;99.90;;;;;;5051343;28;20037;-75
2022/08/17 13:19:28;;;;;;;17.48;15.77;;;23.30;99.90;;;;;;5071674;28;20376;-76
2022/08/17 13:21:58;;;;;;;16.55;14.50;;;23.10;99.90;;;;;;5054511;28;20114;-77